Nearby METAR Reports

 

KOKB - Oceanside, California, USA
Distance from station: W 1mi, 2km
Updated: Wed, 28-Feb-2024 12:58am PST
Mist, Clear
Mist, Clear
 Wind from calm
Wind: Calm
Temperature: 48°F , 9°C
Dew Point: 46°F , 8°C
Humidity: 94%
Barometer: 30.00 inHg , 1015.9 hPa
Summary: Mist
Clouds: Clear
Visibility: 3 miles , 5 km
2024/02/28 08:58 KOKB 280858Z AUTO 00000KT 3SM BR CLR 09/08 A3000 RMK AO2 T00940083
KNFG - Camp Pendleton, California, USA
Distance from station: N 5mi, 8km
Updated: Wed, 28-Feb-2024 12:55am PST
Clear
Clear
 Wind from calm
Wind: Calm
Temperature: 48°F , 9°C
Dew Point: 45°F , 7°C
Humidity: 87%
Barometer: 30.01 inHg , 1016.3 hPa
Clouds: Clear
Visibility: 10 miles , 16 km
2024/02/28 08:55 KNFG 280855Z 00000KT 10SM CLR 09/07 A3001 RMK AO2 SLP162 T00940072 50001 $
 
KCRQ - Carlsbad, California, USA
Distance from station: SSE 6mi, 10km
Updated: Wed, 28-Feb-2024 12:53am PST
Clear
Clear
 Wind from calm
Wind: Calm
Temperature: 54°F , 12°C
Dew Point: 50°F , 10°C
Humidity: 88%
Barometer: 30.00 inHg , 1015.9 hPa
Clouds: Clear
Visibility: 10 miles , 16 km
2024/02/28 08:53 KCRQ 280853Z AUTO 00000KT 10SM CLR 12/10 A3000 RMK AO2 SLP156 T01170100 51001
KL18 - Fallbrook, California, USA
Distance from station: NNE 10mi, 17km
Updated: Wed, 28-Feb-2024 1:35am PST
Clear
Clear
 Wind from NNE
Wind: NNE 7 mph , 11 km/h
Temperature: 52°F , 11°C
Dew Point: 50°F , 10°C
Humidity: 94%
Barometer: 30.01 inHg , 1016.3 hPa
Clouds: Clear
Visibility: 10 miles , 16 km
2024/02/28 09:35 KL18 280935Z AUTO 03006KT 10SM CLR 11/10 A3001 RMK AO2
 
KNKX - Miramar Nas/San, California, USA
Distance from station: SSE 26mi, 43km
Updated: Wed, 28-Feb-2024 12:55am PST
Clear
Clear
 Wind from ENE
Wind: ENE 5 mph , 7 km/h
Temperature: 46°F , 8°C
Wind Chill: 44°F , 7°C
Dew Point: 46°F , 8°C
Humidity: 100%
Barometer: 30.01 inHg , 1016.3 hPa
Clouds: Clear
Visibility: 7 miles , 11 km
2024/02/28 08:55 KNKX 280855Z 07004KT 7SM CLR 08/08 A3001 RMK AO2 SLP158 T00780078 51003
KF70 - Murrieta/Temecul, California, USA
Distance from station: NNE 27mi, 43km
Updated: Wed, 28-Feb-2024 1:35am PST
Clear
Clear
 Wind from calm
Wind: Calm
Temperature: 48°F , 9°C
Dew Point: 48°F , 9°C
Humidity: 100%
Barometer: 30.02 inHg , 1016.6 hPa
Clouds: Clear
Visibility: 7 miles , 11 km
2024/02/28 09:35 KF70 280935Z AUTO 00000KT 7SM CLR 09/09 A3002 RMK AO2
 
KRNM - Ramona, California, USA
Distance from station: ESE 27mi, 43km
Updated: Tue, 27-Feb-2024 11:53pm PST
NOT Current
Fog, Overcast
Fog, Overcast
 Wind from NE
Wind: NE 3 mph , 6 km/h
Temperature: 46°F , 8°C
Dew Point: 45°F , 7°C
Humidity: 93%
Barometer: 30.01 inHg , 1016.3 hPa
Summary: Fog
Clouds: Overcast
Visibility: 1/4 mile , 0.4 km
Cloud details: Overcast 200 ft
2024/02/28 07:53 KRNM 280753Z AUTO 04003KT 1/4SM FG VV002 08/07 A3001 RMK AO2 SLP157 T00780072 401830061
KMYF - San Diego/Mntgmy, California, USA
Distance from station: SSE 30mi, 48km
Updated: Wed, 28-Feb-2024 12:53am PST
Clear
Clear
 Wind from SE
Wind: SE 3 mph , 6 km/h
Temperature: 54°F , 12°C
Dew Point: 50°F , 10°C
Humidity: 88%
Barometer: 30.01 inHg , 1016.3 hPa
Clouds: Clear
Visibility: 10 miles , 16 km
2024/02/28 08:53 KMYF 280853Z AUTO 14003KT 10SM CLR 12/10 A3001 RMK AO2 SLP160 T01170100 51004
 
KSAN - San Diego, California, USA
Distance from station: SSE 34mi, 55km
Updated: Wed, 28-Feb-2024 12:51am PST
Few Clouds
Few Clouds
 Wind from calm
Wind: Calm
Temperature: 55°F , 13°C
Dew Point: 54°F , 12°C
Humidity: 94%
Barometer: 30.03 inHg , 1016.9 hPa
Clouds: Few Clouds
Visibility: 10 miles , 16 km
Cloud details: Few Clouds 1400 ft
2024/02/28 08:51 KSAN 280851Z 00000KT 10SM FEW014 13/12 A3003 RMK AO2 SLP167 T01280117 51004 $
KSEE - San Diego/Santee, California, USA
Distance from station: SE 34mi, 55km
Updated: Wed, 28-Feb-2024 1:15am PST
Clear
Clear
 Wind from N
Wind: N 3 mph , 6 km/h
Temperature: 50°F , 10°C
Dew Point: 48°F , 9°C
Humidity: 94%
Barometer: 30.01 inHg , 1016.3 hPa
Clouds: Clear
Visibility: 10 miles , 16 km
2024/02/28 09:15 KSEE 280915Z AUTO 35003KT 10SM CLR 10/09 A3001 RMK AO2
 
KNZY - North Island Nas, California, USA
Distance from station: S 36mi, 58km
Updated: Wed, 28-Feb-2024 12:52am PST
Few Clouds
Few Clouds
 Wind from calm
Wind: Calm
Temperature: 57°F , 14°C
Dew Point: 54°F , 12°C
Humidity: 88%
Barometer: 30.01 inHg , 1016.3 hPa
Clouds: Few Clouds
Visibility: 10 miles , 16 km
Cloud details: Few Clouds 1400 ft
Few Clouds 20000 ft
2024/02/28 08:52 KNZY 280852Z 00000KT 10SM FEW014 FEW200 14/12 A3001 RMK AO2 SLP160 T01390117 50004 $
KHMT - Hemet, California, USA
Distance from station: NNE 40mi, 65km
Updated: Wed, 28-Feb-2024 1:15am PST
Mist, Clear
Mist, Clear
 Wind from calm
Wind: Calm
Temperature: 43°F , 6°C
Dew Point: 43°F , 6°C
Humidity: 100%
Barometer: 30.02 inHg , 1016.6 hPa
Summary: Mist
Clouds: Clear
Visibility: 4 miles , 6 km
2024/02/28 09:15 KHMT 280915Z AUTO 00000KT 4SM BR CLR 06/06 A3002 RMK AO2 T00640059
 
KSNA - Costa Mesa, California, USA
Distance from station: NW 44mi, 71km
Updated: Wed, 28-Feb-2024 12:53am PST
Clear
Clear
 Wind from calm
Wind: Calm
Temperature: 55°F , 13°C
Dew Point: 50°F , 10°C
Humidity: 82%
Barometer: 30.00 inHg , 1015.9 hPa
Clouds: Clear
Visibility: 10 miles , 16 km
2024/02/28 08:53 KSNA 280853Z AUTO 00000KT 10SM CLR 13/10 A3000 RMK AO2 SLP160 T01330100 58000
KRIV - Riverside/March, California, USA
Distance from station: N 45mi, 73km
Updated: Wed, 28-Feb-2024 12:55am PST
Clear
Clear
 Wind from calm
Wind: Calm
Temperature: 45°F , 7°C
Dew Point: 43°F , 6°C
Humidity: 93%
Barometer: 30.01 inHg , 1016.3 hPa
Clouds: Clear
Visibility: 10 miles , 16 km
2024/02/28 08:55 KRIV 280855Z AUTO 00000KT 10SM CLR 07/06 A3001 RMK AO2 SLP161 T00710064 50001
 
KNRS - Imperial Beach, California, USA
Distance from station: SSE 46mi, 75km
Updated: Wed, 28-Feb-2024 12:53am PST
Few Clouds
Few Clouds
 Wind from ESE
Wind: ESE 3 mph , 6 km/h
Temperature: 1°F , -17°C
Barometer: 30.02 inHg , 1016.6 hPa
Clouds: Few Clouds
Cloud details: Few Clouds 1200 ft
2024/02/28 08:53 KNRS 280853Z AUTO 12003KT FEW012 M17/ A3002 RMK AO2 SLP165 T1167 51003 PNO $
KSDM - San Diego/Brown, California, USA
Distance from station: SSE 48mi, 76km
Updated: Wed, 28-Feb-2024 12:53am PST
Clear
Clear
 Wind from ENE
Wind: ENE 3 mph , 6 km/h
Temperature: 52°F , 11°C
Dew Point: 48°F , 9°C
Humidity: 88%
Barometer: 30.01 inHg , 1016.3 hPa
Clouds: Clear
Visibility: 9 miles , 14 km
2024/02/28 08:53 KSDM 280853Z AUTO 06003KT 9SM CLR 11/09 A3001 RMK AO2 SLP160 T01110094 53002
 
KAJO - Corona Muni, California, USA
Distance from station: NNW 50mi, 80km
Updated: Wed, 28-Feb-2024 12:56am PST
Clear
Clear
 Wind from E
Wind: E 3 mph , 6 km/h
Temperature: 52°F , 11°C
Dew Point: 48°F , 9°C
Humidity: 88%
Barometer: 30.02 inHg , 1016.6 hPa
Clouds: Clear
Visibility: 10 miles , 16 km
2024/02/28 08:56 KAJO 280856Z AUTO 10003KT 10SM CLR 11/09 A3002 RMK AO2 SLP163 6//// T01060089 50001 PNO $